Terminal Aerodrome Forecast
Issued by NWS Charleston, WV

Current Version | Previous Version | Graphics & Text | Print | Product List | Glossary On
Versions: 1 2 3 4 5 6 7 8 9 10 11 12 13 14 15 16 17 18 19 20 21 22
000
FTUS41 KRLX 022300
TAFPKB
TAF
KPKB 022321Z 0300/0324 VRB03KT P6SM SCT250
     FM030800 08004KT P6SM BKN100
     FM031600 15007KT P6SM -RA OVC035
     FM031800 18009KT 5SM -RA BR OVC020
     FM032000 19010G15KT 3SM -RA BR OVC010
     FM032100 19010G15KT 2SM -RA BR OVC008=

USA.gov is the U.S. government's official web portal to all federal, state and local government web resources and services.